Time;durP1;ratioP1;P1;durP2;ratioP2;P2;SDS_P1;SDS_P2;PMS_P1;PMS_P2;Temp;Humidity;BMP_temperature;BMP_pressure;BME280_temperature;BME280_humidity;BME280_pressure;Samples;Min_cycle;Max_cycle;Signal;HPM_P1;HPM_P2
2023/05/02 00:00:45;;;;;;;26.30;17.75;;;10.40;99.90;;;;;;4907449;29;38034;-76
2023/05/02 00:03:12;;;;;;;24.08;17.80;;;10.40;99.90;;;;;;4909771;29;37388;-75
2023/05/02 00:05:39;;;;;;;25.90;17.50;;;10.40;99.90;;;;;;4913845;29;37547;-75
2023/05/02 00:08:05;;;;;;;29.90;17.70;;;10.40;99.90;;;;;;4916022;29;38663;-77
2023/05/02 00:10:31;;;;;;;26.92;17.40;;;10.50;99.90;;;;;;4914649;29;39051;-75
2023/05/02 00:12:58;;;;;;;24.77;17.77;;;10.50;99.90;;;;;;4914225;29;38692;-77
2023/05/02 00:15:26;;;;;;;25.33;17.08;;;10.50;99.90;;;;;;4924064;29;37331;-75
2023/05/02 00:17:52;;;;;;;24.45;17.08;;;10.50;99.90;;;;;;4920002;29;39040;-75
2023/05/02 00:20:18;;;;;;;25.23;17.00;;;10.60;99.90;;;;;;4922522;29;36837;-77
2023/05/02 00:22:44;;;;;;;26.00;16.77;;;10.60;99.90;;;;;;4917281;29;39286;-77
2023/05/02 00:25:15;;;;;;;25.13;16.48;;;10.70;99.90;;;;;;4920984;29;36746;-77
2023/05/02 00:27:42;;;;;;;25.45;17.00;;;10.70;99.90;;;;;;4906172;29;38103;-77
2023/05/02 00:30:08;;;;;;;23.45;15.80;;;10.70;99.90;;;;;;4915131;29;38294;-77
2023/05/02 00:32:35;;;;;;;26.60;15.65;;;10.60;99.90;;;;;;4915959;29;35882;-75
2023/05/02 00:35:01;;;;;;;23.52;16.70;;;10.60;99.90;;;;;;4912104;29;36305;-75
2023/05/02 00:37:27;;;;;;;28.20;18.27;;;10.50;99.90;;;;;;4914914;29;37378;-75
2023/05/02 00:39:54;;;;;;;29.17;19.05;;;10.40;99.90;;;;;;4913114;29;38851;-75
2023/05/02 00:42:20;;;;;;;31.58;19.67;;;10.40;99.90;;;;;;4919157;29;40064;-74
2023/05/02 00:44:46;;;;;;;28.33;18.80;;;10.40;99.90;;;;;;4920738;29;36137;-76
2023/05/02 00:47:14;;;;;;;28.00;18.73;;;10.30;99.90;;;;;;4918230;29;39774;-75
2023/05/02 00:49:41;;;;;;;30.15;18.42;;;10.30;99.90;;;;;;4900998;29;36757;-75
2023/05/02 00:52:08;;;;;;;27.60;17.98;;;10.30;99.90;;;;;;4901701;29;37785;-75
2023/05/02 00:54:37;;;;;;;27.17;17.23;;;10.40;99.90;;;;;;4897605;29;36264;-76
2023/05/02 00:57:04;;;;;;;27.38;16.00;;;10.40;99.90;;;;;;4918861;29;39509;-75
2023/05/02 00:59:31;;;;;;;23.15;14.27;;;10.50;99.90;;;;;;4914212;29;37451;-75
2023/05/02 01:15:33;;;;;;;14.45;9.75;;;10.90;99.90;;;;;;5989549;23;20030;-81
2023/05/02 04:53:29;;;;;;;7.55;1.80;;;9.70;99.90;;;;;;5474534;23;20067;-80
2023/05/02 04:55:56;;;;;;;11.93;2.30;;;9.70;99.90;;;;;;5854339;23;38174;-80
2023/05/02 04:58:28;;;;;;;6.45;1.73;;;9.70;99.90;;;;;;4939406;28;38297;-80
2023/05/02 05:06:06;;;;;;;10.57;1.97;;;9.70;99.90;;;;;;5601740;23;20057;-81
2023/05/02 05:08:32;;;;;;;8.65;1.88;;;9.60;99.90;;;;;;4931898;28;37604;-79
2023/05/02 05:10:58;;;;;;;12.70;2.38;;;9.60;99.90;;;;;;4920262;28;38410;-80
2023/05/02 05:13:24;;;;;;;11.30;2.40;;;9.60;99.90;;;;;;4917131;29;36269;-80
2023/05/02 05:15:51;;;;;;;10.55;1.83;;;9.60;99.90;;;;;;4934328;28;37493;-80
2023/05/02 05:18:17;;;;;;;11.48;2.50;;;9.60;99.90;;;;;;4924241;29;38708;-80
2023/05/02 05:23:46;;;;;;;9.55;2.10;;;9.80;99.90;;;;;;4950857;23;20038;-79
2023/05/02 05:26:15;;;;;;;12.73;2.08;;;9.90;99.90;;;;;;4901987;29;35372;-78
2023/05/02 05:31:17;;;;;;;12.85;2.58;;;9.90;99.90;;;;;;5608816;23;20910;-80
2023/05/02 05:33:44;;;;;;;15.73;2.97;;;10.00;99.90;;;;;;4919918;29;37447;-77
2023/05/02 05:36:16;;;;;;;13.35;2.75;;;10.10;99.90;;;;;;4912063;29;36840;-78
2023/05/02 05:38:42;;;;;;;;;;;10.10;99.90;;;;;;4911743;29;37497;-79
2023/05/02 05:41:10;;;;;;;13.38;2.28;;;10.10;99.90;;;;;;4933476;28;39744;-79
2023/05/02 05:43:36;;;;;;;9.93;2.35;;;10.00;99.90;;;;;;4918707;29;40151;-79
2023/05/02 05:46:02;;;;;;;13.25;2.58;;;10.00;99.90;;;;;;4919291;29;36321;-81
2023/05/02 05:48:28;;;;;;;12.32;2.90;;;10.00;99.90;;;;;;4921034;29;37495;-77
2023/05/02 05:50:54;;;;;;;14.07;2.92;;;10.00;99.90;;;;;;4937353;28;38813;-78
2023/05/02 05:53:21;;;;;;;16.63;3.28;;;9.90;99.90;;;;;;4922244;29;37262;-79
2023/05/02 05:55:47;;;;;;;19.70;3.35;;;10.00;99.90;;;;;;4930349;28;36423;-78
2023/05/02 05:58:13;;;;;;;17.88;3.85;;;10.00;99.90;;;;;;4898989;29;37146;-78
2023/05/02 06:00:42;;;;;;;17.25;3.35;;;10.10;99.90;;;;;;4907487;29;37511;-80
2023/05/02 06:03:08;;;;;;;14.57;3.22;;;10.20;99.90;;;;;;4937979;28;39261;-80
2023/05/02 06:05:34;;;;;;;16.67;3.88;;;10.20;99.90;;;;;;4910312;28;35574;-79
2023/05/02 06:08:00;;;;;;;21.33;3.83;;;10.20;99.90;;;;;;4917925;29;37619;-80
2023/05/02 06:10:26;;;;;;;11.95;3.10;;;10.20;99.90;;;;;;4931585;28;46910;-81
2023/05/02 06:12:52;;;;;;;15.70;3.22;;;10.20;99.90;;;;;;4911050;29;39000;-80
2023/05/02 06:15:19;;;;;;;17.57;3.60;;;10.20;99.90;;;;;;4898028;28;35999;-80
2023/05/02 06:17:45;;;;;;;9.95;2.70;;;10.20;99.90;;;;;;4899038;29;38198;-80
2023/05/02 06:20:11;;;;;;;13.38;3.03;;;10.10;99.90;;;;;;4912221;29;37331;-79
2023/05/02 06:22:38;;;;;;;13.18;3.08;;;10.10;99.90;;;;;;4917774;29;37525;-79
2023/05/02 06:25:06;;;;;;;13.50;2.35;;;10.20;99.90;;;;;;4912396;29;36974;-78
2023/05/02 06:27:32;;;;;;;16.15;2.95;;;10.20;99.90;;;;;;4916377;28;38193;-79
2023/05/02 06:29:58;;;;;;;12.90;2.50;;;10.30;99.90;;;;;;4931491;28;37650;-80
2023/05/02 06:32:25;;;;;;;13.15;2.45;;;10.20;99.90;;;;;;4924066;29;36250;-80
2023/05/02 06:34:52;;;;;;;9.82;2.35;;;10.10;99.90;;;;;;4917127;29;20052;-79
2023/05/02 06:37:19;;;;;;;9.38;2.60;;;10.20;99.90;;;;;;4922700;29;37923;-79
2023/05/02 06:39:45;;;;;;;11.82;2.15;;;10.40;99.90;;;;;;4913339;28;37545;-79
2023/05/02 06:42:11;;;;;;;13.20;3.72;;;10.60;99.90;;;;;;4928144;29;39162;-79
2023/05/02 06:44:38;;;;;;;9.40;2.70;;;10.60;99.90;;;;;;4926492;29;37058;-80
2023/05/02 06:47:06;;;;;;;9.57;2.53;;;10.60;99.90;;;;;;4949099;28;39179;-82
2023/05/02 06:49:32;;;;;;;10.57;2.15;;;10.90;99.90;;;;;;4923413;28;39776;-82
2023/05/02 06:51:58;;;;;;;12.38;2.67;;;11.20;99.90;;;;;;4919329;28;39123;-79
2023/05/02 06:54:26;;;;;;;9.40;2.45;;;11.10;99.90;;;;;;4910287;28;37301;-82
2023/05/02 06:56:52;;;;;;;8.55;2.00;;;11.00;99.90;;;;;;4910468;28;40633;-83
2023/05/02 06:59:19;;;;;;;14.32;2.88;;;10.90;99.90;;;;;;4926390;28;37479;-82
2023/05/02 07:01:45;;;;;;;5.70;1.80;;;10.80;99.90;;;;;;4896077;29;37678;-81
2023/05/02 07:04:11;;;;;;;8.98;2.10;;;10.60;99.90;;;;;;4915746;28;36250;-81
2023/05/02 07:06:37;;;;;;;13.73;2.65;;;10.70;99.90;;;;;;4906745;29;37890;-81
2023/05/02 07:09:03;;;;;;;7.85;2.05;;;10.70;99.90;;;;;;4914941;29;37119;-79
2023/05/02 07:11:29;;;;;;;9.77;2.60;;;10.70;99.90;;;;;;4922929;29;38314;-81
2023/05/02 07:13:56;;;;;;;12.43;2.40;;;10.70;99.90;;;;;;4928423;28;36942;-81
2023/05/02 07:16:23;;;;;;;10.80;2.00;;;10.70;99.90;;;;;;4912198;29;38703;-81
2023/05/02 07:18:49;;;;;;;14.95;2.90;;;10.70;99.90;;;;;;4923179;28;39363;-79
2023/05/02 07:21:17;;;;;;;9.38;2.38;;;10.70;99.90;;;;;;4913523;29;38047;-80
2023/05/02 07:23:43;;;;;;;8.00;2.00;;;11.00;99.90;;;;;;4910385;28;36324;-79
2023/05/02 07:26:09;;;;;;;14.88;3.28;;;11.20;99.90;;;;;;4928156;28;38212;-78
2023/05/02 07:28:35;;;;;;;4.65;2.20;;;11.30;99.90;;;;;;4919008;28;37537;-79
2023/05/02 07:31:02;;;;;;;16.88;2.67;;;11.30;99.90;;;;;;4911490;28;38545;-77
2023/05/02 07:33:28;;;;;;;13.23;2.25;;;11.20;99.90;;;;;;4909219;28;36978;-79
2023/05/02 07:35:55;;;;;;;10.15;1.83;;;11.10;99.90;;;;;;4917606;28;37257;-79
2023/05/02 07:38:21;;;;;;;7.90;1.98;;;11.40;99.90;;;;;;4905750;29;38368;-76
2023/05/02 07:40:47;;;;;;;10.13;2.22;;;11.60;99.90;;;;;;4915180;29;38225;-78
2023/05/02 07:43:14;;;;;;;7.78;2.03;;;12.10;99.90;;;;;;4908278;28;36778;-74
2023/05/02 07:45:41;;;;;;;7.25;2.00;;;12.70;99.90;;;;;;4910576;29;38986;-77
2023/05/02 07:48:07;;;;;;;14.27;1.88;;;12.70;99.90;;;;;;4902681;28;38726;-76
2023/05/02 07:50:33;;;;;;;9.05;1.70;;;12.50;99.90;;;;;;4928299;28;37741;-76
2023/05/02 07:52:59;;;;;;;5.50;1.75;;;12.40;99.90;;;;;;4911112;28;36509;-77
2023/05/02 07:55:26;;;;;;;9.68;1.95;;;12.40;99.90;;;;;;4909351;29;37723;-78
2023/05/02 07:57:52;;;;;;;10.45;2.40;;;12.70;99.90;;;;;;4919902;28;38326;-78
2023/05/02 08:00:18;;;;;;;10.50;1.98;;;12.70;99.90;;;;;;4922792;28;39095;-80
2023/05/02 08:02:45;;;;;;;13.52;2.42;;;12.40;99.90;;;;;;4911753;29;35921;-76
2023/05/02 08:05:12;;;;;;;10.55;2.20;;;12.20;99.90;;;;;;4908664;29;39218;-77
2023/05/02 08:07:38;;;;;;;8.10;2.17;;;12.50;99.90;;;;;;4908944;28;38444;-76
2023/05/02 08:10:05;;;;;;;8.23;2.10;;;12.50;99.90;;;;;;4909170;29;38266;-76
2023/05/02 08:12:31;;;;;;;4.93;1.92;;;12.30;99.90;;;;;;4902568;28;47638;-77
2023/05/02 08:14:57;;;;;;;17.42;2.60;;;12.30;99.90;;;;;;4905807;28;41028;-78
2023/05/02 08:17:23;;;;;;;9.55;1.95;;;12.10;99.90;;;;;;4907458;29;38359;-79
2023/05/02 08:19:50;;;;;;;14.65;2.50;;;11.80;99.90;;;;;;4906787;28;37093;-78
2023/05/02 08:22:16;;;;;;;9.63;2.45;;;11.50;99.90;;;;;;4926573;28;37095;-76
2023/05/02 08:24:42;;;;;;;21.92;3.03;;;11.50;99.90;;;;;;4916513;28;39390;-75
2023/05/02 08:27:08;;;;;;;9.73;1.88;;;11.60;99.90;;;;;;4883597;28;38789;-76
2023/05/02 08:29:34;;;;;;;8.52;2.10;;;11.50;99.90;;;;;;4919369;28;36810;-76
2023/05/02 08:32:00;;;;;;;9.45;1.88;;;11.50;99.90;;;;;;4899770;28;38215;-77
2023/05/02 08:34:26;;;;;;;6.22;1.77;;;11.70;99.90;;;;;;4896573;28;37949;-77
2023/05/02 08:36:52;;;;;;;14.43;2.45;;;11.80;99.90;;;;;;4909489;29;38268;-76
2023/05/02 08:39:19;;;;;;;8.48;1.77;;;12.10;99.90;;;;;;4909444;29;38317;-76
2023/05/02 08:41:45;;;;;;;7.18;1.90;;;12.90;99.90;;;;;;4918929;28;36275;-76
2023/05/02 08:44:11;;;;;;;8.65;1.70;;;13.40;99.90;;;;;;4904383;28;38810;-77
2023/05/02 08:46:40;;;;;;;7.00;1.77;;;13.90;99.90;;;;;;4920679;28;37167;-78
2023/05/02 08:49:09;;;;;;;9.20;1.73;;;13.70;99.90;;;;;;4921908;28;37966;-77
2023/05/02 08:51:36;;;;;;;6.90;1.83;;;13.60;99.90;;;;;;4904031;29;37108;-77
2023/05/02 08:54:02;;;;;;;6.05;1.80;;;13.70;99.90;;;;;;4918579;28;37981;-77
2023/05/02 08:56:29;;;;;;;6.25;1.48;;;13.20;99.90;;;;;;4908428;28;37724;-75
2023/05/02 08:58:55;;;;;;;8.43;2.00;;;12.60;99.90;;;;;;4913881;28;38872;-77
2023/05/02 09:01:23;;;;;;;8.48;2.10;;;12.60;99.90;;;;;;4925246;28;37717;-77
2023/05/02 09:03:49;;;;;;;5.57;1.70;;;12.90;99.90;;;;;;4925858;28;38253;-76
2023/05/02 09:06:18;;;;;;;4.20;1.45;;;13.40;99.90;;;;;;4914593;28;39370;-76
2023/05/02 09:08:47;;;;;;;5.88;1.50;;;13.40;99.90;;;;;;4893297;29;37059;-78
2023/05/02 09:11:15;;;;;;;5.53;1.30;;;13.50;99.90;;;;;;4886277;29;36436;-75
2023/05/02 09:13:44;;;;;;;6.63;1.38;;;13.60;99.90;;;;;;4906338;28;38556;-76
2023/05/02 09:16:21;;;;;;;7.57;1.80;;;13.70;99.90;;;;;;4918515;28;38284;-77
2023/05/02 09:18:50;;;;;;;8.13;1.63;;;13.90;99.90;;;;;;4907572;28;39722;-78
2023/05/02 09:21:18;;;;;;;8.13;1.23;;;14.00;99.90;;;;;;4913814;28;35937;-79
2023/05/02 09:23:46;;;;;;;5.70;1.60;;;14.10;99.90;;;;;;4927813;28;37246;-78
2023/05/02 09:26:28;;;;;;;5.95;1.38;;;14.10;99.90;;;;;;4910221;29;39488;-78
2023/05/02 09:28:55;;;;;;;4.88;1.50;;;14.00;99.90;;;;;;4912872;28;39278;-77
2023/05/02 09:31:40;;;;;;;8.35;1.77;;;14.20;99.90;;;;;;4915561;28;35835;-80
2023/05/02 09:34:12;;;;;;;6.78;1.65;;;14.20;99.90;;;;;;4918041;28;37717;-78
2023/05/02 09:36:46;;;;;;;2.63;1.13;;;14.20;99.90;;;;;;4913509;28;37568;-80
2023/05/02 09:39:17;;;;;;;5.82;2.47;;;14.00;99.90;;;;;;4913572;28;39011;-79
2023/05/02 09:41:45;;;;;;;8.82;1.83;;;14.10;99.90;;;;;;4921759;28;37438;-78
2023/05/02 09:44:13;;;;;;;6.43;1.30;;;14.50;99.90;;;;;;4932219;28;38631;-78
2023/05/02 09:46:50;;;;;;;8.35;1.77;;;14.70;99.90;;;;;;4912431;28;37383;-78
2023/05/02 09:49:17;;;;;;;7.40;1.25;;;14.80;99.90;;;;;;4908765;28;38115;-78
2023/05/02 09:51:45;;;;;;;4.35;1.40;;;15.00;99.90;;;;;;4890351;28;36244;-79
2023/05/02 09:54:36;;;;;;;3.58;1.30;;;15.30;99.90;;;;;;4904794;29;39432;-79
2023/05/02 09:57:03;;;;;;;9.45;1.40;;;15.30;99.90;;;;;;4921978;28;37489;-80
2023/05/02 09:59:29;;;;;;;9.18;1.25;;;15.50;99.90;;;;;;4898959;29;36745;-79
2023/05/02 10:01:57;;;;;;;5.50;1.50;;;15.40;99.90;;;;;;4900906;29;36280;-79
2023/05/02 10:04:24;;;;;;;8.02;1.52;;;15.20;99.90;;;;;;4901340;29;37599;-79
2023/05/02 10:06:54;;;;;;;10.07;2.08;;;15.00;99.90;;;;;;4921470;28;38564;-79
2023/05/02 10:09:21;;;;;;;5.57;1.48;;;14.80;99.90;;;;;;4905801;29;37178;-79
2023/05/02 10:11:54;;;;;;;5.28;1.40;;;14.60;99.90;;;;;;4921889;28;37295;-80
2023/05/02 10:14:22;;;;;;;5.35;1.80;;;15.10;99.90;;;;;;4925493;28;38564;-80
2023/05/02 10:16:49;;;;;;;5.18;1.48;;;15.40;99.90;;;;;;4912756;28;36494;-79
2023/05/02 10:19:22;;;;;;;5.43;1.50;;;15.70;99.90;;;;;;4895997;29;38665;-80
2023/05/02 10:21:49;;;;;;;5.40;1.50;;;15.70;99.90;;;;;;4922112;28;37089;-79
2023/05/02 10:24:16;;;;;;;4.28;1.60;;;16.10;99.90;;;;;;4923789;28;39809;-76
2023/05/02 10:26:43;;;;;;;8.23;1.70;;;16.20;99.90;;;;;;4920111;28;38117;-75
2023/05/02 10:29:10;;;;;;;12.07;2.30;;;16.30;99.90;;;;;;4896135;28;36931;-79
2023/05/02 10:31:39;;;;;;;4.15;1.55;;;16.10;99.90;;;;;;4924740;28;37995;-77
2023/05/02 10:34:09;;;;;;;7.55;1.67;;;15.80;99.90;;;;;;4900802;28;37607;-77
2023/05/02 10:36:36;;;;;;;7.88;1.40;;;15.30;99.90;;;;;;4911141;29;38968;-78
2023/05/02 10:39:02;;;;;;;3.80;1.55;;;15.30;99.90;;;;;;4907835;28;37065;-78
2023/05/02 10:41:32;;;;;;;5.47;1.20;;;15.60;99.90;;;;;;4913253;28;36136;-78
2023/05/02 10:44:00;;;;;;;9.23;1.90;;;15.70;99.90;;;;;;4917067;28;37645;-79
2023/05/02 10:46:34;;;;;;;4.53;1.40;;;15.70;99.90;;;;;;4901679;28;46153;-78
2023/05/02 10:49:08;;;;;;;10.18;1.75;;;16.10;99.90;;;;;;4916444;29;37777;-78
2023/05/02 10:51:36;;;;;;;6.15;1.42;;;16.10;99.90;;;;;;4910823;28;46998;-81
2023/05/02 10:54:22;;;;;;;6.10;1.50;;;16.40;99.90;;;;;;4919160;28;37621;-80
2023/05/02 10:57:07;;;;;;;6.60;1.90;;;16.50;99.90;;;;;;4906387;28;37638;-80
2023/05/02 10:59:41;;;;;;;5.25;1.52;;;16.70;99.90;;;;;;4916768;28;47146;-78
2023/05/02 11:02:23;;;;;;;6.18;1.70;;;16.90;99.90;;;;;;4887438;29;35983;-78
2023/05/02 11:05:05;;;;;;;;;;;16.90;99.90;;;;;;4901635;29;38499;-78
2023/05/02 11:07:34;;;;;;;6.63;1.90;;;17.00;99.90;;;;;;4906567;29;47340;-77
2023/05/02 11:10:20;;;;;;;6.72;2.13;;;17.50;99.90;;;;;;4923852;29;38677;-76
2023/05/02 11:13:00;;;;;;;8.07;1.60;;;17.50;99.90;;;;;;4923954;28;47981;-79
2023/05/02 11:15:26;;;;;;;8.32;2.13;;;17.20;99.90;;;;;;4923542;28;38748;-77
2023/05/02 11:18:11;;;;;;;5.13;1.80;;;17.20;99.90;;;;;;4918611;28;37313;-78
2023/05/02 11:20:39;;;;;;;8.13;1.80;;;17.20;99.90;;;;;;4906438;28;47374;-79
2023/05/02 11:23:14;;;;;;;6.07;1.42;;;17.40;99.90;;;;;;4896669;28;37162;-77
2023/05/02 11:25:43;;;;;;;4.43;1.55;;;17.60;99.90;;;;;;4925390;28;39047;-75
2023/05/02 11:28:40;;;;;;;7.28;2.00;;;17.80;99.90;;;;;;4913817;28;38181;-78
2023/05/02 11:31:08;;;;;;;5.88;1.90;;;17.90;99.90;;;;;;4926984;28;38247;-78
2023/05/02 11:33:35;;;;;;;9.18;1.60;;;18.00;99.90;;;;;;4919247;28;36339;-77
2023/05/02 11:36:01;;;;;;;6.80;1.65;;;17.80;99.90;;;;;;4923828;28;39462;-77
2023/05/02 11:38:36;;;;;;;6.32;1.55;;;18.00;99.90;;;;;;4880163;29;47073;-77
2023/05/02 11:41:03;;;;;;;9.23;1.70;;;17.70;99.90;;;;;;4887737;29;37011;-80
2023/05/02 11:43:29;;;;;;;8.77;2.58;;;17.50;99.90;;;;;;4901466;29;37082;-75
2023/05/02 11:45:58;;;;;;;6.85;1.63;;;17.60;99.90;;;;;;4917082;28;38999;-75
2023/05/02 11:48:26;;;;;;;4.13;1.50;;;17.70;99.90;;;;;;4907086;28;37357;-76
2023/05/02 11:50:56;;;;;;;4.63;1.52;;;17.90;99.90;;;;;;4914200;28;38231;-81
2023/05/02 11:53:28;;;;;;;10.20;1.80;;;17.90;99.90;;;;;;4924572;28;37927;-79
2023/05/02 11:55:56;;;;;;;11.80;2.08;;;18.10;99.90;;;;;;4909401;28;37965;-75
2023/05/02 11:58:25;;;;;;;4.88;2.00;;;18.10;99.90;;;;;;4927040;28;38562;-75
2023/05/02 12:00:52;;;;;;;5.47;1.63;;;17.80;99.90;;;;;;4912763;28;36821;-75
2023/05/02 12:03:32;;;;;;;6.65;1.48;;;17.50;99.90;;;;;;4926465;28;35083;-78
2023/05/02 12:06:27;;;;;;;5.18;1.55;;;17.90;99.90;;;;;;4920286;28;38936;-77
2023/05/02 12:09:09;;;;;;;7.57;1.73;;;18.10;99.90;;;;;;4917889;28;48501;-76
2023/05/02 12:11:37;;;;;;;8.20;1.95;;;17.50;99.90;;;;;;4902628;28;47313;-79
2023/05/02 12:14:04;;;;;;;6.05;2.10;;;16.40;99.90;;;;;;4907962;28;36340;-76
2023/05/02 12:16:31;;;;;;;3.30;1.60;;;16.00;99.90;;;;;;4914551;28;38995;-76
2023/05/02 12:18:58;;;;;;;7.95;1.63;;;16.40;99.90;;;;;;4926096;28;38285;-76
2023/05/02 12:21:28;;;;;;;6.85;2.53;;;17.00;99.90;;;;;;4918343;28;37758;-76
2023/05/02 12:23:55;;;;;;;7.97;2.00;;;17.20;99.90;;;;;;4908548;28;36256;-78
2023/05/02 12:26:28;;;;;;;5.88;1.85;;;17.70;99.90;;;;;;4909387;28;37578;-75
2023/05/02 12:28:54;;;;;;;5.53;1.95;;;18.00;99.90;;;;;;4914553;28;38557;-75
2023/05/02 12:31:21;;;;;;;6.70;1.98;;;17.90;99.90;;;;;;4912661;28;37858;-76
2023/05/02 12:33:49;;;;;;;5.82;1.95;;;17.80;99.90;;;;;;4925913;28;37279;-73
2023/05/02 12:36:15;;;;;;;4.97;1.73;;;18.20;99.90;;;;;;4933902;28;38917;-76
2023/05/02 12:38:51;;;;;;;7.32;1.77;;;18.20;99.90;;;;;;4922724;28;38112;-75
2023/05/02 12:41:38;;;;;;;8.98;2.00;;;18.50;99.90;;;;;;4926474;28;38173;-76
2023/05/02 12:44:06;;;;;;;6.00;1.70;;;18.20;99.90;;;;;;4919710;28;37330;-76
2023/05/02 12:46:32;;;;;;;7.10;1.85;;;17.60;99.90;;;;;;4908181;28;37731;-76
2023/05/02 12:49:02;;;;;;;9.82;2.10;;;16.40;99.90;;;;;;4910444;28;39080;-78
2023/05/02 12:51:30;;;;;;;6.97;2.00;;;15.90;99.90;;;;;;4925162;28;47244;-79
2023/05/02 12:53:56;;;;;;;5.50;1.85;;;16.20;99.90;;;;;;4927123;28;37333;-78
2023/05/02 12:56:23;;;;;;;10.45;1.77;;;16.30;99.90;;;;;;4910759;29;37899;-80
2023/05/02 12:58:49;;;;;;;7.72;1.83;;;16.80;99.90;;;;;;4918021;28;37300;-76
2023/05/02 13:01:17;;;;;;;6.68;2.03;;;17.40;99.90;;;;;;4924334;28;36888;-77
2023/05/02 13:03:43;;;;;;;7.00;2.05;;;17.50;99.90;;;;;;4911901;29;36437;-82
2023/05/02 13:06:10;;;;;;;7.05;1.85;;;17.50;99.90;;;;;;4925473;28;40169;-75
2023/05/02 13:08:37;;;;;;;6.15;2.05;;;17.80;99.90;;;;;;4914023;29;37367;-75
2023/05/02 13:11:03;;;;;;;7.55;2.00;;;18.00;99.90;;;;;;4927155;28;38130;-77
2023/05/02 13:13:31;;;;;;;8.50;2.15;;;18.80;99.90;;;;;;4927391;28;37951;-76
2023/05/02 13:15:57;;;;;;;8.27;1.52;;;18.90;99.90;;;;;;4926186;28;38611;-76
2023/05/02 13:18:23;;;;;;;6.22;1.65;;;18.70;99.90;;;;;;4898963;28;36049;-76
2023/05/02 13:20:50;;;;;;;9.75;2.10;;;18.80;99.90;;;;;;4910018;29;36540;-77
2023/05/02 13:23:16;;;;;;;5.65;1.70;;;19.00;99.90;;;;;;4931188;28;35967;-75
2023/05/02 13:25:42;;;;;;;4.85;1.60;;;18.50;99.90;;;;;;4923381;28;38610;-75
2023/05/02 13:28:08;;;;;;;9.23;1.88;;;18.30;99.90;;;;;;4906167;28;37231;-78
2023/05/02 13:30:34;;;;;;;6.70;1.52;;;18.10;99.90;;;;;;4923228;28;37020;-75
2023/05/02 13:33:00;;;;;;;6.43;2.17;;;18.00;99.90;;;;;;4899340;29;37212;-76
2023/05/02 13:35:26;;;;;;;6.97;1.95;;;17.60;99.90;;;;;;4902308;28;46558;-77
2023/05/02 13:37:53;;;;;;;9.38;1.88;;;16.80;99.90;;;;;;4901997;28;38133;-79
2023/05/02 13:40:19;;;;;;;6.05;1.50;;;17.20;99.90;;;;;;4902325;28;37142;-78
2023/05/02 13:42:45;;;;;;;8.52;2.10;;;17.20;99.90;;;;;;4914276;28;37362;-77
2023/05/02 13:45:11;;;;;;;6.22;1.70;;;17.40;99.90;;;;;;4917405;28;39717;-78
2023/05/02 13:47:37;;;;;;;6.13;1.80;;;17.30;99.90;;;;;;4904838;28;41648;-78
2023/05/02 13:50:04;;;;;;;7.13;1.77;;;17.20;99.90;;;;;;4900252;29;38344;-78
2023/05/02 13:52:30;;;;;;;5.70;1.58;;;17.30;99.90;;;;;;4906012;29;47134;-78
2023/05/02 13:54:56;;;;;;;10.27;1.67;;;17.60;99.90;;;;;;4905185;29;38659;-78
2023/05/02 13:57:22;;;;;;;6.60;1.70;;;17.80;99.90;;;;;;4894963;28;37312;-78
2023/05/02 13:59:49;;;;;;;6.38;1.63;;;17.80;99.90;;;;;;4907677;28;37949;-76
2023/05/02 14:02:16;;;;;;;5.72;2.08;;;17.90;99.90;;;;;;4904714;29;36091;-77
2023/05/02 14:04:42;;;;;;;6.05;1.65;;;18.00;99.90;;;;;;4906734;29;39064;-77
2023/05/02 14:07:08;;;;;;;3.45;1.48;;;17.60;99.90;;;;;;4907130;28;38850;-77
2023/05/02 14:09:34;;;;;;;4.57;1.60;;;17.40;99.90;;;;;;4922698;28;36732;-82
2023/05/02 14:12:01;;;;;;;8.38;1.52;;;17.40;99.90;;;;;;4916961;28;37921;-84
2023/05/02 14:14:27;;;;;;;6.35;1.40;;;17.30;99.90;;;;;;4903980;29;46749;-82
2023/05/02 14:16:53;;;;;;;5.50;1.88;;;17.40;99.90;;;;;;4916211;28;38309;-84
2023/05/02 14:19:19;;;;;;;3.58;1.35;;;17.20;99.90;;;;;;4928552;28;37400;-83
2023/05/02 14:21:45;;;;;;;4.95;1.48;;;17.50;99.90;;;;;;4901704;28;37505;-83
2023/05/02 14:24:13;;;;;;;2.55;1.35;;;17.60;99.90;;;;;;4918118;28;37642;-81
2023/05/02 14:26:39;;;;;;;5.03;1.40;;;17.50;99.90;;;;;;4906181;29;37898;-83
2023/05/02 14:29:06;;;;;;;5.68;1.70;;;17.50;99.90;;;;;;4905666;28;38241;-80
2023/05/02 14:31:32;;;;;;;4.60;1.50;;;17.50;99.90;;;;;;4905571;29;37803;-82
2023/05/02 14:33:58;;;;;;;5.43;2.03;;;17.50;99.90;;;;;;4905280;29;37950;-82
2023/05/02 14:36:25;;;;;;;6.55;2.15;;;17.20;99.90;;;;;;4907059;28;37170;-81
2023/05/02 14:38:52;;;;;;;7.38;1.92;;;17.00;99.90;;;;;;4921554;28;38259;-83
2023/05/02 14:41:18;;;;;;;5.35;1.67;;;16.50;99.90;;;;;;4912123;29;37551;-82
2023/05/02 14:43:44;;;;;;;9.13;1.60;;;16.40;99.90;;;;;;4910192;29;40121;-83
2023/05/02 14:46:10;;;;;;;6.10;1.63;;;16.50;99.90;;;;;;4910874;28;38483;-83
2023/05/02 14:48:36;;;;;;;7.03;1.85;;;16.60;99.90;;;;;;4908896;28;38038;-85
2023/05/02 14:51:03;;;;;;;3.80;1.65;;;16.50;99.90;;;;;;4905741;28;36238;-82
2023/05/02 14:53:30;;;;;;;6.30;1.77;;;16.60;99.90;;;;;;4907996;29;47241;-80
2023/05/02 14:55:56;;;;;;;5.65;1.60;;;16.50;99.90;;;;;;4903054;28;38758;-83
2023/05/02 14:58:22;;;;;;;5.22;1.80;;;16.50;99.90;;;;;;4902992;28;37263;-79
2023/05/02 15:00:48;;;;;;;4.30;1.83;;;16.40;99.90;;;;;;4906097;29;35909;-80
2023/05/02 15:03:14;;;;;;;11.73;2.13;;;16.00;99.90;;;;;;4907269;28;37708;-83
2023/05/02 15:05:41;;;;;;;6.70;1.98;;;15.70;99.90;;;;;;4908212;28;38812;-83
2023/05/02 15:08:07;;;;;;;9.48;1.85;;;15.50;99.90;;;;;;4897540;29;38768;-84
2023/05/02 15:10:39;;;;;;;8.35;1.90;;;15.70;99.90;;;;;;4887784;29;36110;-84
2023/05/02 15:13:06;;;;;;;6.68;2.22;;;15.90;99.90;;;;;;4923373;28;37958;-84
2023/05/02 15:15:32;;;;;;;7.00;1.70;;;16.00;99.90;;;;;;4891413;29;38700;-83
2023/05/02 15:17:58;;;;;;;5.88;2.03;;;15.80;99.90;;;;;;4889235;29;36904;-83
2023/05/02 15:20:24;;;;;;;11.00;2.45;;;15.90;99.90;;;;;;4917080;28;37077;-84
2023/05/02 15:22:50;;;;;;;5.35;1.85;;;16.10;99.90;;;;;;4907722;28;39749;-82
2023/05/02 15:25:16;;;;;;;8.88;1.98;;;15.90;99.90;;;;;;4905498;29;37291;-84
2023/05/02 15:27:43;;;;;;;8.13;1.65;;;15.90;99.90;;;;;;4881662;29;38572;-82
2023/05/02 15:30:09;;;;;;;4.68;2.05;;;16.30;99.90;;;;;;4886941;29;36770;-82
2023/05/02 15:32:35;;;;;;;5.60;1.90;;;16.40;99.90;;;;;;4917627;28;38177;-85
2023/05/02 15:35:05;;;;;;;6.68;1.92;;;16.40;99.90;;;;;;4907452;29;38253;-81
2023/05/02 15:37:31;;;;;;;10.57;2.25;;;16.40;99.90;;;;;;4912311;29;47517;-79
2023/05/02 15:39:58;;;;;;;8.30;1.80;;;16.40;99.90;;;;;;4919853;28;36149;-83
2023/05/02 15:42:24;;;;;;;6.90;2.05;;;15.90;99.90;;;;;;4908217;29;37707;-85
2023/05/02 15:44:52;;;;;;;6.15;1.70;;;16.00;99.90;;;;;;4912393;28;37942;-84
2023/05/02 15:47:18;;;;;;;6.88;2.00;;;15.80;99.90;;;;;;4914979;28;38825;-82
2023/05/02 15:49:44;;;;;;;6.03;2.00;;;16.00;99.90;;;;;;4908819;29;37234;-83
2023/05/02 15:52:11;;;;;;;4.68;1.90;;;15.60;99.90;;;;;;4908944;28;39024;-80
2023/05/02 15:54:38;;;;;;;9.20;2.33;;;15.60;99.90;;;;;;4903732;29;38661;-81
2023/05/02 15:57:04;;;;;;;8.48;2.10;;;15.50;99.90;;;;;;4909261;28;38053;-80
2023/05/02 15:59:30;;;;;;;7.78;2.05;;;15.10;99.90;;;;;;4918431;28;38041;-81
2023/05/02 16:01:56;;;;;;;7.03;2.47;;;15.10;99.90;;;;;;4912081;28;37687;-79
2023/05/02 16:04:24;;;;;;;5.95;1.88;;;15.10;99.90;;;;;;4910738;28;38441;-80
2023/05/02 16:06:50;;;;;;;9.95;3.15;;;15.30;99.90;;;;;;4913780;29;37305;-81
2023/05/02 16:09:16;;;;;;;6.82;1.83;;;15.10;99.90;;;;;;4924661;28;38076;-80
2023/05/02 16:11:43;;;;;;;10.63;2.60;;;15.20;99.90;;;;;;4919168;28;38594;-80
2023/05/02 16:14:09;;;;;;;6.95;2.42;;;15.10;99.90;;;;;;4906013;28;37531;-81
2023/05/02 16:16:35;;;;;;;9.20;2.35;;;15.10;99.90;;;;;;4913853;28;37376;-80
2023/05/02 16:19:01;;;;;;;11.70;2.25;;;15.20;99.90;;;;;;4911261;29;36941;-79
2023/05/02 16:21:27;;;;;;;5.95;2.08;;;15.30;99.90;;;;;;4912515;28;47178;-83
2023/05/02 16:23:54;;;;;;;8.18;2.30;;;15.30;99.90;;;;;;4909893;28;35701;-82
2023/05/02 16:26:20;;;;;;;5.13;2.15;;;15.00;99.90;;;;;;4905113;28;37600;-82
2023/05/02 16:28:46;;;;;;;7.75;2.03;;;15.00;99.90;;;;;;4912234;28;38883;-82
2023/05/02 16:31:13;;;;;;;8.48;2.20;;;15.00;99.90;;;;;;4906206;29;40561;-82
2023/05/02 16:33:41;;;;;;;8.13;2.30;;;14.70;99.90;;;;;;4891518;29;38568;-83
2023/05/02 16:36:07;;;;;;;7.32;2.20;;;14.70;99.90;;;;;;4883208;29;37489;-82
2023/05/02 16:38:35;;;;;;;9.85;2.65;;;14.50;99.90;;;;;;4889047;29;36969;-83
2023/05/02 16:41:07;;;;;;;7.45;2.30;;;14.20;99.90;;;;;;4904927;28;39882;-83
2023/05/02 16:43:34;;;;;;;6.43;2.63;;;14.30;99.90;;;;;;4877791;29;47397;-84
2023/05/02 16:46:01;;;;;;;11.00;2.08;;;14.10;99.90;;;;;;4890285;29;38861;-84